sensor_id;sensor_type;location;lat;lon;timestamp;temperature;humidity
48328;DHT22;34136;51.022;7.082;2023-07-16T00:00:10;22.00;99.90
48328;DHT22;34136;51.022;7.082;2023-07-16T00:02:56;22.00;99.90
48328;DHT22;34136;51.022;7.082;2023-07-16T00:05:42;22.00;99.90
48328;DHT22;34136;51.022;7.082;2023-07-16T00:08:28;22.00;99.90
48328;DHT22;34136;51.022;7.082;2023-07-16T00:11:14;21.80;99.90
48328;DHT22;34136;51.022;7.082;2023-07-16T00:14:00;21.80;99.90
48328;DHT22;34136;51.022;7.082;2023-07-16T00:16:47;21.70;99.90
48328;DHT22;34136;51.022;7.082;2023-07-16T00:19:33;21.60;99.90
48328;DHT22;34136;51.022;7.082;2023-07-16T00:22:19;21.60;99.90
48328;DHT22;34136;51.022;7.082;2023-07-16T00:25:06;21.50;99.90
48328;DHT22;34136;51.022;7.082;2023-07-16T00:27:52;21.60;99.90
48328;DHT22;34136;51.022;7.082;2023-07-16T00:30:39;21.60;99.90
48328;DHT22;34136;51.022;7.082;2023-07-16T00:33:27;21.50;99.90
48328;DHT22;34136;51.022;7.082;2023-07-16T00:36:13;21.50;99.90
48328;DHT22;34136;51.022;7.082;2023-07-16T00:38:59;21.50;99.90
48328;DHT22;34136;51.022;7.082;2023-07-16T00:41:45;21.40;99.90
48328;DHT22;34136;51.022;7.082;2023-07-16T00:44:31;21.30;99.90
48328;DHT22;34136;51.022;7.082;2023-07-16T00:47:18;21.40;99.90
48328;DHT22;34136;51.022;7.082;2023-07-16T00:50:04;21.30;99.90
48328;DHT22;34136;51.022;7.082;2023-07-16T00:52:51;21.30;99.90
48328;DHT22;34136;51.022;7.082;2023-07-16T00:55:37;21.30;99.90
48328;DHT22;34136;51.022;7.082;2023-07-16T00:58:24;21.30;99.90
48328;DHT22;34136;51.022;7.082;2023-07-16T01:01:10;21.20;99.90
48328;DHT22;34136;51.022;7.082;2023-07-16T01:03:56;21.20;99.90
48328;DHT22;34136;51.022;7.082;2023-07-16T01:06:47;21.20;99.90
48328;DHT22;34136;51.022;7.082;2023-07-16T01:09:35;21.20;99.90
48328;DHT22;34136;51.022;7.082;2023-07-16T01:12:22;21.30;99.90
48328;DHT22;34136;51.022;7.082;2023-07-16T01:15:10;21.30;99.90
48328;DHT22;34136;51.022;7.082;2023-07-16T01:17:59;21.30;99.90
48328;DHT22;34136;51.022;7.082;2023-07-16T01:20:45;21.10;99.90
48328;DHT22;34136;51.022;7.082;2023-07-16T01:23:36;21.00;99.90
48328;DHT22;34136;51.022;7.082;2023-07-16T01:29:31;20.90;99.90
48328;DHT22;34136;51.022;7.082;2023-07-16T01:32:18;20.90;99.90
48328;DHT22;34136;51.022;7.082;2023-07-16T01:35:07;20.80;99.90
48328;DHT22;34136;51.022;7.082;2023-07-16T01:37:54;20.80;99.90
48328;DHT22;34136;51.022;7.082;2023-07-16T01:40:41;20.80;99.90
48328;DHT22;34136;51.022;7.082;2023-07-16T01:43:27;20.90;99.90
48328;DHT22;34136;51.022;7.082;2023-07-16T01:46:13;20.90;99.90
48328;DHT22;34136;51.022;7.082;2023-07-16T01:49:00;20.90;99.90
48328;DHT22;34136;51.022;7.082;2023-07-16T01:51:46;20.80;99.90
48328;DHT22;34136;51.022;7.082;2023-07-16T01:54:33;20.80;99.90
48328;DHT22;34136;51.022;7.082;2023-07-16T01:57:20;20.70;99.90
48328;DHT22;34136;51.022;7.082;2023-07-16T02:00:06;20.70;99.90
48328;DHT22;34136;51.022;7.082;2023-07-16T02:03:05;20.60;99.90
48328;DHT22;34136;51.022;7.082;2023-07-16T02:05:51;20.50;99.90
48328;DHT22;34136;51.022;7.082;2023-07-16T02:08:38;20.50;99.90
48328;DHT22;34136;51.022;7.082;2023-07-16T02:11:24;20.40;99.90
48328;DHT22;34136;51.022;7.082;2023-07-16T02:14:10;20.40;99.90
48328;DHT22;34136;51.022;7.082;2023-07-16T02:16:57;20.40;99.90
48328;DHT22;34136;51.022;7.082;2023-07-16T02:19:44;20.30;99.90
48328;DHT22;34136;51.022;7.082;2023-07-16T02:22:31;20.20;99.90
48328;DHT22;34136;51.022;7.082;2023-07-16T02:25:17;20.10;99.90
48328;DHT22;34136;51.022;7.082;2023-07-16T02:28:07;20.00;99.90
48328;DHT22;34136;51.022;7.082;2023-07-16T02:30:53;19.90;99.90
48328;DHT22;34136;51.022;7.082;2023-07-16T02:33:39;19.90;99.90
48328;DHT22;34136;51.022;7.082;2023-07-16T02:36:27;19.80;99.90
48328;DHT22;34136;51.022;7.082;2023-07-16T02:39:14;19.90;99.90
48328;DHT22;34136;51.022;7.082;2023-07-16T02:42:01;20.00;99.90
48328;DHT22;34136;51.022;7.082;2023-07-16T02:44:48;20.00;99.90
48328;DHT22;34136;51.022;7.082;2023-07-16T02:47:34;19.90;99.90
48328;DHT22;34136;51.022;7.082;2023-07-16T02:50:20;19.80;99.90
48328;DHT22;34136;51.022;7.082;2023-07-16T02:53:07;19.80;99.90
48328;DHT22;34136;51.022;7.082;2023-07-16T02:55:54;19.70;99.90
48328;DHT22;34136;51.022;7.082;2023-07-16T02:58:40;19.70;99.90
48328;DHT22;34136;51.022;7.082;2023-07-16T03:01:26;19.60;99.90
48328;DHT22;34136;51.022;7.082;2023-07-16T03:04:13;19.50;99.90
48328;DHT22;34136;51.022;7.082;2023-07-16T03:06:59;19.40;99.90
48328;DHT22;34136;51.022;7.082;2023-07-16T03:09:46;19.40;99.90
48328;DHT22;34136;51.022;7.082;2023-07-16T03:12:32;19.50;99.90
48328;DHT22;34136;51.022;7.082;2023-07-16T03:15:18;19.50;99.90
48328;DHT22;34136;51.022;7.082;2023-07-16T03:18:04;19.40;99.90
48328;DHT22;34136;51.022;7.082;2023-07-16T03:20:51;19.30;99.90
48328;DHT22;34136;51.022;7.082;2023-07-16T03:23:37;19.30;99.90
48328;DHT22;34136;51.022;7.082;2023-07-16T03:26:24;19.40;99.90
48328;DHT22;34136;51.022;7.082;2023-07-16T03:29:10;19.40;99.90
48328;DHT22;34136;51.022;7.082;2023-07-16T03:35:47;19.40;99.90
48328;DHT22;34136;51.022;7.082;2023-07-16T03:38:33;19.30;99.90
48328;DHT22;34136;51.022;7.082;2023-07-16T03:41:19;19.30;99.90
48328;DHT22;34136;51.022;7.082;2023-07-16T03:44:06;19.20;99.90
48328;DHT22;34136;51.022;7.082;2023-07-16T03:46:55;19.20;99.90
48328;DHT22;34136;51.022;7.082;2023-07-16T03:49:42;19.20;99.90
48328;DHT22;34136;51.022;7.082;2023-07-16T03:52:28;19.10;99.90
48328;DHT22;34136;51.022;7.082;2023-07-16T03:55:14;19.10;99.90
48328;DHT22;34136;51.022;7.082;2023-07-16T03:58:01;19.10;99.90
48328;DHT22;34136;51.022;7.082;2023-07-16T04:00:50;19.10;99.90
48328;DHT22;34136;51.022;7.082;2023-07-16T04:03:37;19.10;99.90
48328;DHT22;34136;51.022;7.082;2023-07-16T04:06:24;19.10;99.90
48328;DHT22;34136;51.022;7.082;2023-07-16T04:09:12;19.10;99.90
48328;DHT22;34136;51.022;7.082;2023-07-16T04:11:58;19.10;99.90
48328;DHT22;34136;51.022;7.082;2023-07-16T04:14:44;19.00;99.90
48328;DHT22;34136;51.022;7.082;2023-07-16T04:17:31;19.00;99.90
48328;DHT22;34136;51.022;7.082;2023-07-16T04:20:17;19.10;99.90
48328;DHT22;34136;51.022;7.082;2023-07-16T04:23:03;19.10;99.90
48328;DHT22;34136;51.022;7.082;2023-07-16T04:25:53;19.10;99.90
48328;DHT22;34136;51.022;7.082;2023-07-16T04:28:39;19.10;99.90
48328;DHT22;34136;51.022;7.082;2023-07-16T04:31:26;19.20;99.90
48328;DHT22;34136;51.022;7.082;2023-07-16T04:34:12;19.20;99.90
48328;DHT22;34136;51.022;7.082;2023-07-16T04:36:59;19.10;99.90
48328;DHT22;34136;51.022;7.082;2023-07-16T04:39:45;19.20;99.90
48328;DHT22;34136;51.022;7.082;2023-07-16T04:42:32;19.20;99.90
48328;DHT22;34136;51.022;7.082;2023-07-16T04:45:18;19.20;99.90
48328;DHT22;34136;51.022;7.082;2023-07-16T04:48:04;19.20;99.90
48328;DHT22;34136;51.022;7.082;2023-07-16T04:50:51;19.40;99.90
48328;DHT22;34136;51.022;7.082;2023-07-16T04:53:37;19.50;99.90
48328;DHT22;34136;51.022;7.082;2023-07-16T04:56:24;19.50;99.90
48328;DHT22;34136;51.022;7.082;2023-07-16T04:59:10;19.60;99.90
48328;DHT22;34136;51.022;7.082;2023-07-16T05:01:56;19.60;99.90
48328;DHT22;34136;51.022;7.082;2023-07-16T05:04:43;19.60;99.90
48328;DHT22;34136;51.022;7.082;2023-07-16T05:07:29;19.60;99.90
48328;DHT22;34136;51.022;7.082;2023-07-16T05:10:15;19.80;99.90
48328;DHT22;34136;51.022;7.082;2023-07-16T05:13:02;19.70;99.90
48328;DHT22;34136;51.022;7.082;2023-07-16T05:15:48;19.80;99.90
48328;DHT22;34136;51.022;7.082;2023-07-16T05:18:34;20.00;99.90
48328;DHT22;34136;51.022;7.082;2023-07-16T05:21:21;20.00;99.90
48328;DHT22;34136;51.022;7.082;2023-07-16T05:24:07;20.00;99.90
48328;DHT22;34136;51.022;7.082;2023-07-16T05:26:54;20.00;99.90
48328;DHT22;34136;51.022;7.082;2023-07-16T05:29:40;20.10;99.90
48328;DHT22;34136;51.022;7.082;2023-07-16T05:32:26;20.20;99.90
48328;DHT22;34136;51.022;7.082;2023-07-16T05:35:13;20.30;99.90
48328;DHT22;34136;51.022;7.082;2023-07-16T05:37:59;20.20;99.90
48328;DHT22;34136;51.022;7.082;2023-07-16T05:40:45;20.40;99.90
48328;DHT22;34136;51.022;7.082;2023-07-16T05:43:32;20.50;99.90
48328;DHT22;34136;51.022;7.082;2023-07-16T05:46:18;20.30;99.90
48328;DHT22;34136;51.022;7.082;2023-07-16T05:49:05;20.30;99.90
48328;DHT22;34136;51.022;7.082;2023-07-16T05:51:51;20.40;99.90
48328;DHT22;34136;51.022;7.082;2023-07-16T05:54:37;20.50;99.90
48328;DHT22;34136;51.022;7.082;2023-07-16T05:57:24;20.70;99.90
48328;DHT22;34136;51.022;7.082;2023-07-16T06:00:11;20.80;99.90
48328;DHT22;34136;51.022;7.082;2023-07-16T06:03:02;21.00;99.90
48328;DHT22;34136;51.022;7.082;2023-07-16T06:05:49;21.20;99.90
48328;DHT22;34136;51.022;7.082;2023-07-16T06:08:35;21.10;99.90
48328;DHT22;34136;51.022;7.082;2023-07-16T06:11:21;21.20;99.90
48328;DHT22;34136;51.022;7.082;2023-07-16T06:14:08;21.40;99.90
48328;DHT22;34136;51.022;7.082;2023-07-16T06:16:54;21.30;99.90
48328;DHT22;34136;51.022;7.082;2023-07-16T06:19:40;21.40;99.90
48328;DHT22;34136;51.022;7.082;2023-07-16T06:22:26;21.50;99.90
48328;DHT22;34136;51.022;7.082;2023-07-16T06:25:13;21.70;99.90
48328;DHT22;34136;51.022;7.082;2023-07-16T06:27:59;21.60;99.90
48328;DHT22;34136;51.022;7.082;2023-07-16T06:30:45;21.70;99.90
48328;DHT22;34136;51.022;7.082;2023-07-16T06:33:32;21.80;99.90
48328;DHT22;34136;51.022;7.082;2023-07-16T06:36:18;21.90;99.90
48328;DHT22;34136;51.022;7.082;2023-07-16T06:39:04;21.70;99.90
48328;DHT22;34136;51.022;7.082;2023-07-16T06:41:51;21.80;99.90
48328;DHT22;34136;51.022;7.082;2023-07-16T06:44:37;21.80;99.90
48328;DHT22;34136;51.022;7.082;2023-07-16T06:47:24;21.90;99.90
48328;DHT22;34136;51.022;7.082;2023-07-16T06:50:10;22.10;99.90
48328;DHT22;34136;51.022;7.082;2023-07-16T06:52:56;22.30;99.90
48328;DHT22;34136;51.022;7.082;2023-07-16T06:55:43;22.10;99.90
48328;DHT22;34136;51.022;7.082;2023-07-16T06:58:33;22.30;99.90
48328;DHT22;34136;51.022;7.082;2023-07-16T07:01:20;22.00;99.90
48328;DHT22;34136;51.022;7.082;2023-07-16T07:04:06;21.90;99.90
48328;DHT22;34136;51.022;7.082;2023-07-16T07:06:53;22.20;99.90
48328;DHT22;34136;51.022;7.082;2023-07-16T07:09:39;22.40;99.90
48328;DHT22;34136;51.022;7.082;2023-07-16T07:12:25;22.50;99.90
48328;DHT22;34136;51.022;7.082;2023-07-16T07:15:11;22.60;99.90
48328;DHT22;34136;51.022;7.082;2023-07-16T07:17:58;22.90;99.90
48328;DHT22;34136;51.022;7.082;2023-07-16T07:20:45;23.40;99.90
48328;DHT22;34136;51.022;7.082;2023-07-16T07:23:31;23.60;99.90
48328;DHT22;34136;51.022;7.082;2023-07-16T07:26:18;23.70;99.90
48328;DHT22;34136;51.022;7.082;2023-07-16T07:29:04;23.60;99.90
48328;DHT22;34136;51.022;7.082;2023-07-16T07:31:52;23.40;99.90
48328;DHT22;34136;51.022;7.082;2023-07-16T07:34:39;23.70;99.90
48328;DHT22;34136;51.022;7.082;2023-07-16T07:37:25;23.60;99.90
48328;DHT22;34136;51.022;7.082;2023-07-16T07:40:12;23.30;99.90
48328;DHT22;34136;51.022;7.082;2023-07-16T07:42:58;23.20;99.90
48328;DHT22;34136;51.022;7.082;2023-07-16T07:45:44;23.40;99.90
48328;DHT22;34136;51.022;7.082;2023-07-16T07:48:31;23.40;99.90
48328;DHT22;34136;51.022;7.082;2023-07-16T07:51:18;23.30;99.90
48328;DHT22;34136;51.022;7.082;2023-07-16T07:54:04;23.10;99.90
48328;DHT22;34136;51.022;7.082;2023-07-16T07:56:50;23.20;99.90
48328;DHT22;34136;51.022;7.082;2023-07-16T07:59:37;23.40;99.90
48328;DHT22;34136;51.022;7.082;2023-07-16T08:02:24;23.80;99.90
48328;DHT22;34136;51.022;7.082;2023-07-16T08:05:11;23.60;99.90
48328;DHT22;34136;51.022;7.082;2023-07-16T08:07:57;23.60;99.90
48328;DHT22;34136;51.022;7.082;2023-07-16T08:10:43;23.60;99.90
48328;DHT22;34136;51.022;7.082;2023-07-16T08:13:29;23.40;99.90
48328;DHT22;34136;51.022;7.082;2023-07-16T08:16:16;23.50;99.90
48328;DHT22;34136;51.022;7.082;2023-07-16T08:19:02;23.70;99.90
48328;DHT22;34136;51.022;7.082;2023-07-16T08:21:48;23.60;99.90
48328;DHT22;34136;51.022;7.082;2023-07-16T08:24:34;23.70;99.90
48328;DHT22;34136;51.022;7.082;2023-07-16T08:27:20;24.00;99.90
48328;DHT22;34136;51.022;7.082;2023-07-16T08:30:07;24.40;99.90
48328;DHT22;34136;51.022;7.082;2023-07-16T08:32:53;24.00;99.90
48328;DHT22;34136;51.022;7.082;2023-07-16T08:35:41;23.90;99.90
48328;DHT22;34136;51.022;7.082;2023-07-16T08:38:27;24.40;99.90
48328;DHT22;34136;51.022;7.082;2023-07-16T08:41:14;24.50;99.90
48328;DHT22;34136;51.022;7.082;2023-07-16T08:44:01;24.40;99.90
48328;DHT22;34136;51.022;7.082;2023-07-16T08:46:47;24.60;99.90
48328;DHT22;34136;51.022;7.082;2023-07-16T08:49:34;24.90;99.90
48328;DHT22;34136;51.022;7.082;2023-07-16T08:52:20;24.70;99.90
48328;DHT22;34136;51.022;7.082;2023-07-16T08:55:07;24.50;99.90
48328;DHT22;34136;51.022;7.082;2023-07-16T08:57:53;24.70;99.90
48328;DHT22;34136;51.022;7.082;2023-07-16T09:00:41;24.90;99.90
48328;DHT22;34136;51.022;7.082;2023-07-16T09:03:28;25.00;99.90
48328;DHT22;34136;51.022;7.082;2023-07-16T09:06:15;24.90;99.90
48328;DHT22;34136;51.022;7.082;2023-07-16T09:09:01;25.10;99.90
48328;DHT22;34136;51.022;7.082;2023-07-16T09:11:48;25.40;99.90
48328;DHT22;34136;51.022;7.082;2023-07-16T09:14:34;25.40;99.90
48328;DHT22;34136;51.022;7.082;2023-07-16T09:17:22;25.20;99.90
48328;DHT22;34136;51.022;7.082;2023-07-16T09:20:09;25.20;99.90
48328;DHT22;34136;51.022;7.082;2023-07-16T09:22:55;24.80;99.90
48328;DHT22;34136;51.022;7.082;2023-07-16T09:25:41;24.90;99.90
48328;DHT22;34136;51.022;7.082;2023-07-16T09:28:32;25.00;99.90
48328;DHT22;34136;51.022;7.082;2023-07-16T09:31:19;25.10;99.90
48328;DHT22;34136;51.022;7.082;2023-07-16T09:34:05;25.50;99.90
48328;DHT22;34136;51.022;7.082;2023-07-16T09:36:59;25.70;99.90
48328;DHT22;34136;51.022;7.082;2023-07-16T09:39:46;25.50;99.90
48328;DHT22;34136;51.022;7.082;2023-07-16T09:42:37;25.60;99.90
48328;DHT22;34136;51.022;7.082;2023-07-16T09:45:23;25.90;99.90
48328;DHT22;34136;51.022;7.082;2023-07-16T09:48:10;25.70;99.90
48328;DHT22;34136;51.022;7.082;2023-07-16T09:50:56;25.70;99.90
48328;DHT22;34136;51.022;7.082;2023-07-16T09:53:45;25.80;99.90
48328;DHT22;34136;51.022;7.082;2023-07-16T09:56:36;26.00;99.90
48328;DHT22;34136;51.022;7.082;2023-07-16T09:59:25;25.90;99.90
48328;DHT22;34136;51.022;7.082;2023-07-16T10:02:13;26.20;99.90
48328;DHT22;34136;51.022;7.082;2023-07-16T10:04:59;26.20;99.90
48328;DHT22;34136;51.022;7.082;2023-07-16T10:07:53;26.70;99.90
48328;DHT22;34136;51.022;7.082;2023-07-16T10:13:28;26.70;99.90
48328;DHT22;34136;51.022;7.082;2023-07-16T10:16:22;26.70;99.90
48328;DHT22;34136;51.022;7.082;2023-07-16T10:19:07;26.70;99.90
48328;DHT22;34136;51.022;7.082;2023-07-16T10:21:54;26.30;99.90
48328;DHT22;34136;51.022;7.082;2023-07-16T10:24:42;26.60;99.90
48328;DHT22;34136;51.022;7.082;2023-07-16T10:27:33;26.70;99.90
48328;DHT22;34136;51.022;7.082;2023-07-16T10:30:20;27.10;99.90
48328;DHT22;34136;51.022;7.082;2023-07-16T10:33:12;26.80;99.90
48328;DHT22;34136;51.022;7.082;2023-07-16T10:35:59;26.60;99.90
48328;DHT22;34136;51.022;7.082;2023-07-16T10:38:46;26.80;99.90
48328;DHT22;34136;51.022;7.082;2023-07-16T10:41:32;26.80;99.90
48328;DHT22;34136;51.022;7.082;2023-07-16T10:44:20;26.50;99.90
48328;DHT22;34136;51.022;7.082;2023-07-16T10:47:08;27.10;99.90
48328;DHT22;34136;51.022;7.082;2023-07-16T10:49:55;27.20;99.90
48328;DHT22;34136;51.022;7.082;2023-07-16T10:52:41;26.80;99.90
48328;DHT22;34136;51.022;7.082;2023-07-16T10:55:29;26.70;99.90
48328;DHT22;34136;51.022;7.082;2023-07-16T10:58:15;27.00;99.90
48328;DHT22;34136;51.022;7.082;2023-07-16T11:01:01;26.40;99.90
48328;DHT22;34136;51.022;7.082;2023-07-16T11:03:47;26.60;99.90
48328;DHT22;34136;51.022;7.082;2023-07-16T11:06:33;26.60;99.90
48328;DHT22;34136;51.022;7.082;2023-07-16T11:09:20;26.50;99.90
48328;DHT22;34136;51.022;7.082;2023-07-16T11:12:13;26.60;99.90
48328;DHT22;34136;51.022;7.082;2023-07-16T11:15:00;26.60;99.90
48328;DHT22;34136;51.022;7.082;2023-07-16T11:17:49;26.40;99.90
48328;DHT22;34136;51.022;7.082;2023-07-16T11:20:54;26.50;99.90
48328;DHT22;34136;51.022;7.082;2023-07-16T11:23:40;26.50;99.90
48328;DHT22;34136;51.022;7.082;2023-07-16T11:26:29;26.40;99.90
48328;DHT22;34136;51.022;7.082;2023-07-16T11:29:15;26.40;99.90
48328;DHT22;34136;51.022;7.082;2023-07-16T11:32:02;26.70;99.90
48328;DHT22;34136;51.022;7.082;2023-07-16T11:34:55;26.60;99.90
48328;DHT22;34136;51.022;7.082;2023-07-16T11:37:41;26.40;99.90
48328;DHT22;34136;51.022;7.082;2023-07-16T11:40:28;26.50;99.90
48328;DHT22;34136;51.022;7.082;2023-07-16T11:43:14;26.60;99.90
48328;DHT22;34136;51.022;7.082;2023-07-16T11:46:00;26.40;99.90
48328;DHT22;34136;51.022;7.082;2023-07-16T11:48:46;26.50;99.90
48328;DHT22;34136;51.022;7.082;2023-07-16T11:51:32;26.50;99.90
48328;DHT22;34136;51.022;7.082;2023-07-16T11:54:18;26.60;99.90
48328;DHT22;34136;51.022;7.082;2023-07-16T11:57:04;26.80;99.90
48328;DHT22;34136;51.022;7.082;2023-07-16T11:59:50;26.80;99.90
48328;DHT22;34136;51.022;7.082;2023-07-16T12:02:36;26.80;99.90
48328;DHT22;34136;51.022;7.082;2023-07-16T12:05:22;26.60;99.90
48328;DHT22;34136;51.022;7.082;2023-07-16T12:08:09;26.30;99.90
48328;DHT22;34136;51.022;7.082;2023-07-16T12:10:55;25.90;99.90
48328;DHT22;34136;51.022;7.082;2023-07-16T12:13:41;26.20;99.90
48328;DHT22;34136;51.022;7.082;2023-07-16T12:16:27;26.50;99.90
48328;DHT22;34136;51.022;7.082;2023-07-16T12:19:13;26.80;99.90
48328;DHT22;34136;51.022;7.082;2023-07-16T12:21:59;27.10;99.90
48328;DHT22;34136;51.022;7.082;2023-07-16T12:24:46;27.30;99.90
48328;DHT22;34136;51.022;7.082;2023-07-16T12:27:32;27.50;99.90
48328;DHT22;34136;51.022;7.082;2023-07-16T12:30:19;27.20;99.90
48328;DHT22;34136;51.022;7.082;2023-07-16T12:33:05;27.20;99.90
48328;DHT22;34136;51.022;7.082;2023-07-16T12:35:52;27.20;99.90
48328;DHT22;34136;51.022;7.082;2023-07-16T12:38:38;27.10;99.90
48328;DHT22;34136;51.022;7.082;2023-07-16T12:41:25;26.80;99.90
48328;DHT22;34136;51.022;7.082;2023-07-16T12:44:11;26.50;99.90
48328;DHT22;34136;51.022;7.082;2023-07-16T12:46:57;26.80;99.90
48328;DHT22;34136;51.022;7.082;2023-07-16T12:49:44;26.80;99.90
48328;DHT22;34136;51.022;7.082;2023-07-16T12:52:30;27.00;99.90
48328;DHT22;34136;51.022;7.082;2023-07-16T12:55:17;27.30;99.90
48328;DHT22;34136;51.022;7.082;2023-07-16T12:58:03;27.10;99.90
48328;DHT22;34136;51.022;7.082;2023-07-16T13:00:50;27.20;99.90
48328;DHT22;34136;51.022;7.082;2023-07-16T13:03:36;27.50;99.90
48328;DHT22;34136;51.022;7.082;2023-07-16T13:06:23;27.50;99.90
48328;DHT22;34136;51.022;7.082;2023-07-16T13:09:09;27.60;99.90
48328;DHT22;34136;51.022;7.082;2023-07-16T13:11:55;27.10;99.90
48328;DHT22;34136;51.022;7.082;2023-07-16T13:14:41;27.30;99.90
48328;DHT22;34136;51.022;7.082;2023-07-16T13:17:28;26.80;99.90
48328;DHT22;34136;51.022;7.082;2023-07-16T13:20:14;26.70;99.90
48328;DHT22;34136;51.022;7.082;2023-07-16T13:23:00;26.80;99.90
48328;DHT22;34136;51.022;7.082;2023-07-16T13:25:46;27.00;99.90
48328;DHT22;34136;51.022;7.082;2023-07-16T13:28:32;27.00;99.90
48328;DHT22;34136;51.022;7.082;2023-07-16T13:31:19;27.20;99.90
48328;DHT22;34136;51.022;7.082;2023-07-16T13:34:05;27.30;99.90
48328;DHT22;34136;51.022;7.082;2023-07-16T13:36:51;27.10;99.90
48328;DHT22;34136;51.022;7.082;2023-07-16T13:39:37;27.00;99.90
48328;DHT22;34136;51.022;7.082;2023-07-16T13:42:24;27.30;99.90
48328;DHT22;34136;51.022;7.082;2023-07-16T13:45:10;27.30;99.90
48328;DHT22;34136;51.022;7.082;2023-07-16T13:47:56;27.30;99.90
48328;DHT22;34136;51.022;7.082;2023-07-16T13:50:43;27.10;99.90
48328;DHT22;34136;51.022;7.082;2023-07-16T13:53:29;27.10;99.90
48328;DHT22;34136;51.022;7.082;2023-07-16T13:56:15;26.90;99.90
48328;DHT22;34136;51.022;7.082;2023-07-16T13:59:01;26.50;99.90
48328;DHT22;34136;51.022;7.082;2023-07-16T14:01:59;26.80;99.90
48328;DHT22;34136;51.022;7.082;2023-07-16T14:04:45;27.00;99.90
48328;DHT22;34136;51.022;7.082;2023-07-16T14:07:32;27.20;99.90
48328;DHT22;34136;51.022;7.082;2023-07-16T14:10:18;27.40;99.90
48328;DHT22;34136;51.022;7.082;2023-07-16T14:13:04;27.20;99.90
48328;DHT22;34136;51.022;7.082;2023-07-16T14:15:51;27.00;99.90
48328;DHT22;34136;51.022;7.082;2023-07-16T14:18:37;26.90;99.90
48328;DHT22;34136;51.022;7.082;2023-07-16T14:21:23;27.10;99.90
48328;DHT22;34136;51.022;7.082;2023-07-16T14:24:09;27.10;99.90
48328;DHT22;34136;51.022;7.082;2023-07-16T14:26:58;27.30;99.90
48328;DHT22;34136;51.022;7.082;2023-07-16T14:29:44;27.40;99.90
48328;DHT22;34136;51.022;7.082;2023-07-16T14:32:31;27.70;99.90
48328;DHT22;34136;51.022;7.082;2023-07-16T14:35:17;27.50;99.90
48328;DHT22;34136;51.022;7.082;2023-07-16T14:38:13;27.30;99.90
48328;DHT22;34136;51.022;7.082;2023-07-16T14:41:05;27.40;99.90
48328;DHT22;34136;51.022;7.082;2023-07-16T14:43:51;27.50;99.90
48328;DHT22;34136;51.022;7.082;2023-07-16T14:46:37;27.80;99.90
48328;DHT22;34136;51.022;7.082;2023-07-16T14:49:24;27.80;99.90
48328;DHT22;34136;51.022;7.082;2023-07-16T14:52:10;27.70;99.90
48328;DHT22;34136;51.022;7.082;2023-07-16T14:54:56;27.80;99.90
48328;DHT22;34136;51.022;7.082;2023-07-16T14:57:42;27.80;99.90
48328;DHT22;34136;51.022;7.082;2023-07-16T15:00:29;27.60;99.90
48328;DHT22;34136;51.022;7.082;2023-07-16T15:03:15;27.80;99.90
48328;DHT22;34136;51.022;7.082;2023-07-16T15:06:01;27.40;99.90
48328;DHT22;34136;51.022;7.082;2023-07-16T15:08:48;27.00;99.90
48328;DHT22;34136;51.022;7.082;2023-07-16T15:11:34;26.80;99.90
48328;DHT22;34136;51.022;7.082;2023-07-16T15:14:20;26.90;99.90
48328;DHT22;34136;51.022;7.082;2023-07-16T15:17:07;27.10;99.90
48328;DHT22;34136;51.022;7.082;2023-07-16T15:19:53;27.30;99.90
48328;DHT22;34136;51.022;7.082;2023-07-16T15:22:39;27.50;99.90
48328;DHT22;34136;51.022;7.082;2023-07-16T15:25:26;27.70;99.90
48328;DHT22;34136;51.022;7.082;2023-07-16T15:28:12;27.90;99.90
48328;DHT22;34136;51.022;7.082;2023-07-16T15:31:00;27.80;99.90
48328;DHT22;34136;51.022;7.082;2023-07-16T15:33:46;27.80;99.90
48328;DHT22;34136;51.022;7.082;2023-07-16T15:36:33;27.60;99.90
48328;DHT22;34136;51.022;7.082;2023-07-16T15:39:19;27.40;99.90
48328;DHT22;34136;51.022;7.082;2023-07-16T15:42:09;27.20;99.90
48328;DHT22;34136;51.022;7.082;2023-07-16T15:44:56;27.10;99.90
48328;DHT22;34136;51.022;7.082;2023-07-16T15:47:43;27.20;99.90
48328;DHT22;34136;51.022;7.082;2023-07-16T15:50:30;27.20;99.90
48328;DHT22;34136;51.022;7.082;2023-07-16T15:53:16;27.10;99.90
48328;DHT22;34136;51.022;7.082;2023-07-16T15:56:02;27.20;99.90
48328;DHT22;34136;51.022;7.082;2023-07-16T15:58:48;27.40;99.90
48328;DHT22;34136;51.022;7.082;2023-07-16T16:01:35;27.30;99.90
48328;DHT22;34136;51.022;7.082;2023-07-16T16:04:21;26.90;99.90
48328;DHT22;34136;51.022;7.082;2023-07-16T16:07:07;27.00;99.90
48328;DHT22;34136;51.022;7.082;2023-07-16T16:09:53;26.90;99.90
48328;DHT22;34136;51.022;7.082;2023-07-16T16:12:39;27.10;99.90
48328;DHT22;34136;51.022;7.082;2023-07-16T16:15:26;27.40;99.90
48328;DHT22;34136;51.022;7.082;2023-07-16T16:18:13;27.50;99.90
48328;DHT22;34136;51.022;7.082;2023-07-16T16:21:00;27.60;99.90
48328;DHT22;34136;51.022;7.082;2023-07-16T16:23:46;27.80;99.90
48328;DHT22;34136;51.022;7.082;2023-07-16T16:26:33;27.50;99.90
48328;DHT22;34136;51.022;7.082;2023-07-16T16:29:18;27.30;99.90
48328;DHT22;34136;51.022;7.082;2023-07-16T16:32:05;27.10;99.90
48328;DHT22;34136;51.022;7.082;2023-07-16T16:34:52;27.20;99.90
48328;DHT22;34136;51.022;7.082;2023-07-16T16:37:38;27.30;99.90
48328;DHT22;34136;51.022;7.082;2023-07-16T16:40:24;27.00;99.90
48328;DHT22;34136;51.022;7.082;2023-07-16T16:43:13;27.10;99.90
48328;DHT22;34136;51.022;7.082;2023-07-16T16:45:59;27.00;99.90
48328;DHT22;34136;51.022;7.082;2023-07-16T16:48:45;26.80;99.90
48328;DHT22;34136;51.022;7.082;2023-07-16T16:51:32;26.80;99.90
48328;DHT22;34136;51.022;7.082;2023-07-16T16:54:18;27.00;99.90
48328;DHT22;34136;51.022;7.082;2023-07-16T16:57:05;27.30;99.90
48328;DHT22;34136;51.022;7.082;2023-07-16T16:59:51;27.30;99.90
48328;DHT22;34136;51.022;7.082;2023-07-16T17:02:38;26.90;99.90
48328;DHT22;34136;51.022;7.082;2023-07-16T17:05:24;26.70;99.90
48328;DHT22;34136;51.022;7.082;2023-07-16T17:08:11;26.80;99.90
48328;DHT22;34136;51.022;7.082;2023-07-16T17:10:57;27.10;99.90
48328;DHT22;34136;51.022;7.082;2023-07-16T17:13:43;27.10;99.90
48328;DHT22;34136;51.022;7.082;2023-07-16T17:16:29;27.20;99.90
48328;DHT22;34136;51.022;7.082;2023-07-16T17:19:16;27.10;99.90
48328;DHT22;34136;51.022;7.082;2023-07-16T17:22:03;26.90;99.90
48328;DHT22;34136;51.022;7.082;2023-07-16T17:24:49;27.00;99.90
48328;DHT22;34136;51.022;7.082;2023-07-16T17:27:36;26.80;99.90
48328;DHT22;34136;51.022;7.082;2023-07-16T17:30:23;26.70;99.90
48328;DHT22;34136;51.022;7.082;2023-07-16T17:33:09;26.70;99.90
48328;DHT22;34136;51.022;7.082;2023-07-16T17:35:55;26.50;99.90
48328;DHT22;34136;51.022;7.082;2023-07-16T17:38:41;26.30;99.90
48328;DHT22;34136;51.022;7.082;2023-07-16T17:41:28;26.10;99.90